sensor_id;sensor_type;location;lat;lon;timestamp;pressure;altitude;pressure_sealevel;temperature;humidity
9277;BME280;4676;42.678;23.244;2023-12-20T00:01:46;94408.88;;;0.36;nan
9277;BME280;4676;42.678;23.244;2023-12-20T00:04:12;94406.34;;;0.32;nan
9277;BME280;4676;42.678;23.244;2023-12-20T00:06:40;94399.72;;;0.35;nan
9277;BME280;4676;42.678;23.244;2023-12-20T00:09:07;94402.22;;;0.35;nan
9277;BME280;4676;42.678;23.244;2023-12-20T00:11:34;94390.59;;;0.34;nan
9277;BME280;4676;42.678;23.244;2023-12-20T00:14:00;94383.16;;;0.42;nan
9277;BME280;4676;42.678;23.244;2023-12-20T00:16:27;94386.44;;;0.39;nan
9277;BME280;4676;42.678;23.244;2023-12-20T00:18:54;94388.09;;;0.33;nan
9277;BME280;4676;42.678;23.244;2023-12-20T00:21:20;94380.56;;;0.25;nan
9277;BME280;4676;42.678;23.244;2023-12-20T00:23:48;94376.44;;;0.29;nan
9277;BME280;4676;42.678;23.244;2023-12-20T00:26:15;94369.78;;;0.22;nan
9277;BME280;4676;42.678;23.244;2023-12-20T00:28:42;94365.63;;;0.22;nan
9277;BME280;4676;42.678;23.244;2023-12-20T00:31:09;94362.31;;;0.25;nan
9277;BME280;4676;42.678;23.244;2023-12-20T00:33:36;94357.31;;;0.23;nan
9277;BME280;4676;42.678;23.244;2023-12-20T00:36:03;94349.84;;;0.19;nan
9277;BME280;4676;42.678;23.244;2023-12-20T00:38:30;94349.00;;;0.20;nan
9277;BME280;4676;42.678;23.244;2023-12-20T00:40:58;94344.84;;;0.25;nan
9277;BME280;4676;42.678;23.244;2023-12-20T00:43:25;94341.50;;;0.15;nan
9277;BME280;4676;42.678;23.244;2023-12-20T00:45:52;94341.53;;;0.20;nan
9277;BME280;4676;42.678;23.244;2023-12-20T00:48:18;94347.34;;;0.22;nan
9277;BME280;4676;42.678;23.244;2023-12-20T00:50:45;94345.72;;;0.24;nan
9277;BME280;4676;42.678;23.244;2023-12-20T00:53:12;94345.72;;;0.24;nan
9277;BME280;4676;42.678;23.244;2023-12-20T00:55:38;94342.34;;;0.19;nan
9277;BME280;4676;42.678;23.244;2023-12-20T00:58:07;94341.56;;;0.29;nan
9277;BME280;4676;42.678;23.244;2023-12-20T01:00:33;94340.72;;;0.30;nan
9277;BME280;4676;42.678;23.244;2023-12-20T01:03:00;94334.88;;;0.25;nan
9277;BME280;4676;42.678;23.244;2023-12-20T01:05:27;94333.22;;;0.13;nan
9277;BME280;4676;42.678;23.244;2023-12-20T01:07:54;94329.06;;;0.17;nan
9277;BME280;4676;42.678;23.244;2023-12-20T01:10:20;94324.88;;;0.14;nan
9277;BME280;4676;42.678;23.244;2023-12-20T01:12:48;94329.88;;;0.13;nan
9277;BME280;4676;42.678;23.244;2023-12-20T01:15:16;94324.03;;;0.08;nan
9277;BME280;4676;42.678;23.244;2023-12-20T01:20:17;94316.59;;;0.12;nan
9277;BME280;4676;42.678;23.244;2023-12-20T01:22:45;94314.91;;;0.08;nan
9277;BME280;4676;42.678;23.244;2023-12-20T01:25:12;94315.75;;;0.03;nan
9277;BME280;4676;42.678;23.244;2023-12-20T01:27:39;94303.31;;;0.22;nan
9277;BME280;4676;42.678;23.244;2023-12-20T01:30:06;94299.16;;;0.15;nan
9277;BME280;4676;42.678;23.244;2023-12-20T01:32:35;94301.63;;;0.06;nan
9277;BME280;4676;42.678;23.244;2023-12-20T01:35:01;94299.13;;;-0.02;nan
9277;BME280;4676;42.678;23.244;2023-12-20T01:37:28;94297.44;;;-0.06;nan
9277;BME280;4676;42.678;23.244;2023-12-20T01:39:55;94287.50;;;-0.07;nan
9277;BME280;4676;42.678;23.244;2023-12-20T01:42:21;94282.50;;;-0.03;nan
9277;BME280;4676;42.678;23.244;2023-12-20T01:44:48;94275.03;;;-0.07;nan
9277;BME280;4676;42.678;23.244;2023-12-20T01:47:15;94270.88;;;-0.14;nan
9277;BME280;4676;42.678;23.244;2023-12-20T01:49:44;94265.88;;;-0.16;nan
9277;BME280;4676;42.678;23.244;2023-12-20T01:52:11;94271.66;;;-0.17;nan
9277;BME280;4676;42.678;23.244;2023-12-20T01:54:38;94270.00;;;-0.13;nan
9277;BME280;4676;42.678;23.244;2023-12-20T01:57:06;94262.63;;;0.22;nan
9277;BME280;4676;42.678;23.244;2023-12-20T01:59:33;94264.28;;;0.12;nan
9277;BME280;4676;42.678;23.244;2023-12-20T02:02:00;94260.94;;;0.12;nan
9277;BME280;4676;42.678;23.244;2023-12-20T02:04:29;94251.81;;;0.12;nan
9277;BME280;4676;42.678;23.244;2023-12-20T02:06:57;94258.50;;;0.24;nan
9277;BME280;4676;42.678;23.244;2023-12-20T02:09:25;94254.31;;;0.14;nan
9277;BME280;4676;42.678;23.244;2023-12-20T02:11:53;94257.59;;;0.05;nan
9277;BME280;4676;42.678;23.244;2023-12-20T02:14:20;94245.19;;;0.20;nan
9277;BME280;4676;42.678;23.244;2023-12-20T02:16:47;94239.34;;;0.08;nan
9277;BME280;4676;42.678;23.244;2023-12-20T02:19:14;94247.63;;;0.00;nan
9277;BME280;4676;42.678;23.244;2023-12-20T02:21:43;94237.69;;;-0.04;nan
9277;BME280;4676;42.678;23.244;2023-12-20T02:24:09;94236.81;;;-0.06;nan
9277;BME280;4676;42.678;23.244;2023-12-20T02:26:36;94245.13;;;-0.09;nan
9277;BME280;4676;42.678;23.244;2023-12-20T02:29:03;94237.69;;;0.02;nan
9277;BME280;4676;42.678;23.244;2023-12-20T02:31:30;94224.38;;;-0.03;nan
9277;BME280;4676;42.678;23.244;2023-12-20T02:33:57;94224.38;;;-0.08;nan
9277;BME280;4676;42.678;23.244;2023-12-20T02:36:23;94220.19;;;-0.10;nan
9277;BME280;4676;42.678;23.244;2023-12-20T02:38:51;94215.25;;;-0.07;nan
9277;BME280;4676;42.678;23.244;2023-12-20T02:41:18;94212.75;;;-0.18;nan
9277;BME280;4676;42.678;23.244;2023-12-20T02:43:45;94220.19;;;-0.16;nan
9277;BME280;4676;42.678;23.244;2023-12-20T02:46:12;94216.06;;;-0.19;nan
9277;BME280;4676;42.678;23.244;2023-12-20T02:48:40;94213.53;;;-0.23;nan
9277;BME280;4676;42.678;23.244;2023-12-20T02:51:07;94211.06;;;-0.23;nan
9277;BME280;4676;42.678;23.244;2023-12-20T02:53:33;94217.69;;;-0.28;nan
9277;BME280;4676;42.678;23.244;2023-12-20T02:56:02;94209.38;;;-0.36;nan
9277;BME280;4676;42.678;23.244;2023-12-20T02:58:28;94216.88;;;-0.29;nan
9277;BME280;4676;42.678;23.244;2023-12-20T03:00:55;94218.53;;;-0.17;nan
9277;BME280;4676;42.678;23.244;2023-12-20T03:03:22;94205.25;;;-0.25;nan
9277;BME280;4676;42.678;23.244;2023-12-20T03:05:48;94209.41;;;-0.20;nan
9277;BME280;4676;42.678;23.244;2023-12-20T03:08:15;94204.41;;;-0.23;nan
9277;BME280;4676;42.678;23.244;2023-12-20T03:10:42;94121.34;;;-0.66;nan
9277;BME280;4676;42.678;23.244;2023-12-20T03:13:10;94212.75;;;-0.18;nan
9277;BME280;4676;42.678;23.244;2023-12-20T03:15:36;94206.13;;;0.09;nan
9277;BME280;4676;42.678;23.244;2023-12-20T03:18:04;94210.25;;;-0.16;nan
9277;BME280;4676;42.678;23.244;2023-12-20T03:20:30;94215.19;;;-0.33;nan
9277;BME280;4676;42.678;23.244;2023-12-20T03:22:59;94213.53;;;-0.35;nan
9277;BME280;4676;42.678;23.244;2023-12-20T03:25:26;94201.84;;;-0.45;nan
9277;BME280;4676;42.678;23.244;2023-12-20T03:27:53;94202.66;;;-0.53;nan
9277;BME280;4676;42.678;23.244;2023-12-20T03:30:21;94199.34;;;-0.45;nan
9277;BME280;4676;42.678;23.244;2023-12-20T03:32:47;94184.44;;;-0.44;nan
9277;BME280;4676;42.678;23.244;2023-12-20T03:35:14;94186.97;;;-0.39;nan
9277;BME280;4676;42.678;23.244;2023-12-20T03:37:44;94183.63;;;-0.46;nan
9277;BME280;4676;42.678;23.244;2023-12-20T03:40:10;94181.94;;;-0.52;nan
9277;BME280;4676;42.678;23.244;2023-12-20T03:42:37;94186.91;;;-0.48;nan
9277;BME280;4676;42.678;23.244;2023-12-20T03:45:04;94188.56;;;-0.52;nan
9277;BME280;4676;42.678;23.244;2023-12-20T03:47:33;94196.00;;;-0.58;nan
9277;BME280;4676;42.678;23.244;2023-12-20T03:49:59;94188.53;;;-0.67;nan
9277;BME280;4676;42.678;23.244;2023-12-20T03:52:26;94195.16;;;-0.71;nan
9277;BME280;4676;42.678;23.244;2023-12-20T03:54:53;94191.81;;;-0.73;nan
9277;BME280;4676;42.678;23.244;2023-12-20T03:57:19;94192.63;;;-0.72;nan
9277;BME280;4676;42.678;23.244;2023-12-20T03:59:46;94181.84;;;-0.76;nan
9277;BME280;4676;42.678;23.244;2023-12-20T04:02:12;94176.03;;;-0.73;nan
9277;BME280;4676;42.678;23.244;2023-12-20T04:04:41;94178.56;;;-0.66;nan
9277;BME280;4676;42.678;23.244;2023-12-20T04:07:07;94169.44;;;-0.62;nan
9277;BME280;4676;42.678;23.244;2023-12-20T04:09:34;94166.13;;;-0.67;nan
9277;BME280;4676;42.678;23.244;2023-12-20T04:12:01;94160.28;;;-0.74;nan
9277;BME280;4676;42.678;23.244;2023-12-20T04:14:27;94157.81;;;-0.75;nan
9277;BME280;4676;42.678;23.244;2023-12-20T04:16:54;94153.72;;;-0.54;nan
9277;BME280;4676;42.678;23.244;2023-12-20T04:19:21;94152.84;;;-0.72;nan
9277;BME280;4676;42.678;23.244;2023-12-20T04:21:49;94072.31;;;-0.98;nan
9277;BME280;4676;42.678;23.244;2023-12-20T04:24:15;94154.50;;;-0.70;nan
9277;BME280;4676;42.678;23.244;2023-12-20T04:26:42;94152.81;;;-0.81;nan
9277;BME280;4676;42.678;23.244;2023-12-20T04:29:09;94152.81;;;-0.75;nan
9277;BME280;4676;42.678;23.244;2023-12-20T04:31:36;94152.00;;;-0.70;nan
9277;BME280;4676;42.678;23.244;2023-12-20T04:34:02;94156.09;;;-0.81;nan
9277;BME280;4676;42.678;23.244;2023-12-20T04:36:29;94137.88;;;-0.80;nan
9277;BME280;4676;42.678;23.244;2023-12-20T04:38:57;94132.94;;;-0.75;nan
9277;BME280;4676;42.678;23.244;2023-12-20T04:41:25;94132.91;;;-0.81;nan
9277;BME280;4676;42.678;23.244;2023-12-20T04:43:53;94149.47;;;-0.86;nan
9277;BME280;4676;42.678;23.244;2023-12-20T04:46:20;94145.38;;;-0.71;nan
9277;BME280;4676;42.678;23.244;2023-12-20T04:48:47;94147.81;;;-0.80;nan
9277;BME280;4676;42.678;23.244;2023-12-20T04:51:13;94142.84;;;-0.80;nan
9277;BME280;4676;42.678;23.244;2023-12-20T04:53:40;94147.03;;;-0.68;nan
9277;BME280;4676;42.678;23.244;2023-12-20T04:56:08;94137.09;;;-0.74;nan
9277;BME280;4676;42.678;23.244;2023-12-20T04:58:35;94139.53;;;-0.80;nan
9277;BME280;4676;42.678;23.244;2023-12-20T05:01:02;94132.94;;;-0.66;nan
9277;BME280;4676;42.678;23.244;2023-12-20T05:03:29;94133.75;;;-0.78;nan
9277;BME280;4676;42.678;23.244;2023-12-20T05:05:56;94132.94;;;-0.72;nan
9277;BME280;4676;42.678;23.244;2023-12-20T05:08:22;94132.91;;;-0.78;nan
9277;BME280;4676;42.678;23.244;2023-12-20T05:10:49;94118.88;;;-0.51;nan
9277;BME280;4676;42.678;23.244;2023-12-20T05:13:17;94126.31;;;-0.72;nan
9277;BME280;4676;42.678;23.244;2023-12-20T05:15:44;94126.28;;;-0.79;nan
9277;BME280;4676;42.678;23.244;2023-12-20T05:18:10;94120.44;;;-0.92;nan
9277;BME280;4676;42.678;23.244;2023-12-20T05:20:37;94123.69;;;-1.08;nan
9277;BME280;4676;42.678;23.244;2023-12-20T05:23:04;94090.44;;;-1.28;nan
9277;BME280;4676;42.678;23.244;2023-12-20T05:25:31;94114.59;;;-1.00;nan
9277;BME280;4676;42.678;23.244;2023-12-20T05:27:57;94113.72;;;-1.08;nan
9277;BME280;4676;42.678;23.244;2023-12-20T05:30:26;94108.75;;;-1.05;nan
9277;BME280;4676;42.678;23.244;2023-12-20T05:32:53;94113.75;;;-1.07;nan
9277;BME280;4676;42.678;23.244;2023-12-20T05:35:19;94103.00;;;-1.03;nan
9277;BME280;4676;42.678;23.244;2023-12-20T05:37:47;94099.66;;;-1.06;nan
9277;BME280;4676;42.678;23.244;2023-12-20T05:40:14;94097.13;;;-1.14;nan
9277;BME280;4676;42.678;23.244;2023-12-20T05:42:41;94100.44;;;-1.18;nan
9277;BME280;4676;42.678;23.244;2023-12-20T05:45:09;94098.00;;;-1.07;nan
9277;BME280;4676;42.678;23.244;2023-12-20T05:47:37;94097.16;;;-1.05;nan
9277;BME280;4676;42.678;23.244;2023-12-20T05:50:06;94101.28;;;-1.14;nan
9277;BME280;4676;42.678;23.244;2023-12-20T05:52:33;94099.63;;;-1.17;nan
9277;BME280;4676;42.678;23.244;2023-12-20T05:55:00;94099.59;;;-1.18;nan
9277;BME280;4676;42.678;23.244;2023-12-20T05:57:27;94101.25;;;-1.20;nan
9277;BME280;4676;42.678;23.244;2023-12-20T05:59:54;94092.13;;;-1.23;nan
9277;BME280;4676;42.678;23.244;2023-12-20T06:02:20;94088.75;;;-1.35;nan
9277;BME280;4676;42.678;23.244;2023-12-20T06:04:48;94088.84;;;-1.20;nan
9277;BME280;4676;42.678;23.244;2023-12-20T06:07:16;94078.91;;;-1.17;nan
9277;BME280;4676;42.678;23.244;2023-12-20T06:09:43;94097.06;;;-1.32;nan
9277;BME280;4676;42.678;23.244;2023-12-20T06:12:10;94093.78;;;-1.22;nan
9277;BME280;4676;42.678;23.244;2023-12-20T06:14:37;94077.94;;;-1.40;nan
9277;BME280;4676;42.678;23.244;2023-12-20T06:17:03;94092.91;;;-1.37;nan
9277;BME280;4676;42.678;23.244;2023-12-20T06:19:30;94089.59;;;-1.33;nan
9277;BME280;4676;42.678;23.244;2023-12-20T06:21:58;94106.91;;;-1.44;nan
9277;BME280;4676;42.678;23.244;2023-12-20T06:24:25;94102.03;;;-1.32;nan
9277;BME280;4676;42.678;23.244;2023-12-20T06:26:53;94101.91;;;-1.55;nan
9277;BME280;4676;42.678;23.244;2023-12-20T06:29:20;94096.19;;;-1.37;nan
9277;BME280;4676;42.678;23.244;2023-12-20T06:31:46;94098.59;;;-1.51;nan
9277;BME280;4676;42.678;23.244;2023-12-20T06:34:13;94095.34;;;-1.42;nan
9277;BME280;4676;42.678;23.244;2023-12-20T06:36:40;94092.03;;;-1.45;nan
9277;BME280;4676;42.678;23.244;2023-12-20T06:39:08;94086.13;;;-1.66;nan
9277;BME280;4676;42.678;23.244;2023-12-20T06:41:37;94087.75;;;-1.69;nan
9277;BME280;4676;42.678;23.244;2023-12-20T06:44:04;94081.25;;;-1.46;nan
9277;BME280;4676;42.678;23.244;2023-12-20T06:46:31;94084.53;;;-1.50;nan
9277;BME280;4676;42.678;23.244;2023-12-20T06:48:58;94073.03;;;-1.30;nan
9277;BME280;4676;42.678;23.244;2023-12-20T06:51:24;94050.56;;;-1.51;nan
9277;BME280;4676;42.678;23.244;2023-12-20T06:53:51;94065.59;;;-1.28;nan
9277;BME280;4676;42.678;23.244;2023-12-20T06:56:20;94068.13;;;-1.18;nan
9277;BME280;4676;42.678;23.244;2023-12-20T06:58:46;94059.00;;;-1.19;nan
9277;BME280;4676;42.678;23.244;2023-12-20T07:01:13;94050.72;;;-1.18;nan
9277;BME280;4676;42.678;23.244;2023-12-20T07:03:40;94055.72;;;-1.16;nan
9277;BME280;4676;42.678;23.244;2023-12-20T07:06:07;94053.22;;;-1.09;nan
9277;BME280;4676;42.678;23.244;2023-12-20T07:08:34;94039.97;;;-1.02;nan
9277;BME280;4676;42.678;23.244;2023-12-20T07:11:00;94038.31;;;-1.10;nan
9277;BME280;4676;42.678;23.244;2023-12-20T07:13:29;94048.31;;;-0.84;nan
9277;BME280;4676;42.678;23.244;2023-12-20T07:15:56;94042.53;;;-0.82;nan
9277;BME280;4676;42.678;23.244;2023-12-20T07:18:23;94052.47;;;-0.79;nan
9277;BME280;4676;42.678;23.244;2023-12-20T07:20:49;94054.91;;;-1.02;nan
9277;BME280;4676;42.678;23.244;2023-12-20T07:23:16;94044.97;;;-0.91;nan
9277;BME280;4676;42.678;23.244;2023-12-20T07:25:44;94038.34;;;-0.93;nan
9277;BME280;4676;42.678;23.244;2023-12-20T07:28:11;94043.31;;;-0.96;nan
9277;BME280;4676;42.678;23.244;2023-12-20T07:30:39;94036.69;;;-0.87;nan
9277;BME280;4676;42.678;23.244;2023-12-20T07:33:06;94027.59;;;-0.79;nan
9277;BME280;4676;42.678;23.244;2023-12-20T07:35:34;94034.22;;;-0.82;nan
9277;BME280;4676;42.678;23.244;2023-12-20T07:38:00;94034.25;;;-0.69;nan
9277;BME280;4676;42.678;23.244;2023-12-20T07:40:27;94032.59;;;-0.76;nan
9277;BME280;4676;42.678;23.244;2023-12-20T07:42:54;94030.94;;;-0.65;nan
9277;BME280;4676;42.678;23.244;2023-12-20T07:45:21;94033.41;;;-0.63;nan
9277;BME280;4676;42.678;23.244;2023-12-20T07:47:49;94031.78;;;-0.58;nan
9277;BME280;4676;42.678;23.244;2023-12-20T07:50:16;94030.94;;;-0.66;nan
9277;BME280;4676;42.678;23.244;2023-12-20T07:52:42;94029.28;;;-0.55;nan
9277;BME280;4676;42.678;23.244;2023-12-20T07:55:09;94032.59;;;-0.56;nan
9277;BME280;4676;42.678;23.244;2023-12-20T07:57:35;94025.97;;;-0.57;nan
9277;BME280;4676;42.678;23.244;2023-12-20T08:00:03;94031.78;;;-0.46;nan
9277;BME280;4676;42.678;23.244;2023-12-20T08:02:30;94029.28;;;-0.34;nan
9277;BME280;4676;42.678;23.244;2023-12-20T08:04:58;94022.66;;;-0.11;nan
9277;BME280;4676;42.678;23.244;2023-12-20T08:07:25;94016.00;;;-0.10;nan
9277;BME280;4676;42.678;23.244;2023-12-20T08:09:52;94026.78;;;-0.01;nan
9277;BME280;4676;42.678;23.244;2023-12-20T08:12:20;94018.47;;;0.10;nan
9277;BME280;4676;42.678;23.244;2023-12-20T08:14:47;94024.25;;;0.18;nan
9277;BME280;4676;42.678;23.244;2023-12-20T08:17:13;94019.25;;;0.25;nan
9277;BME280;4676;42.678;23.244;2023-12-20T08:19:41;94012.59;;;0.32;nan
9277;BME280;4676;42.678;23.244;2023-12-20T08:22:09;94002.59;;;0.42;nan
9277;BME280;4676;42.678;23.244;2023-12-20T08:24:36;93999.25;;;0.56;nan
9277;BME280;4676;42.678;23.244;2023-12-20T08:27:03;94010.00;;;0.62;nan
9277;BME280;4676;42.678;23.244;2023-12-20T08:29:30;94006.69;;;0.63;nan
9277;BME280;4676;42.678;23.244;2023-12-20T08:31:57;93996.78;;;0.40;nan
9277;BME280;4676;42.678;23.244;2023-12-20T08:34:23;93991.78;;;0.39;nan
9277;BME280;4676;42.678;23.244;2023-12-20T08:36:50;93993.50;;;0.38;nan
9277;BME280;4676;42.678;23.244;2023-12-20T08:39:18;93984.34;;;0.36;nan
9277;BME280;4676;42.678;23.244;2023-12-20T08:41:45;93993.47;;;0.37;nan
9277;BME280;4676;42.678;23.244;2023-12-20T08:44:12;93983.53;;;0.31;nan
9277;BME280;4676;42.678;23.244;2023-12-20T08:46:39;93974.34;;;0.40;nan
9277;BME280;4676;42.678;23.244;2023-12-20T08:49:05;93979.34;;;0.39;nan
9277;BME280;4676;42.678;23.244;2023-12-20T08:51:32;93974.31;;;0.53;nan
9277;BME280;4676;42.678;23.244;2023-12-20T08:53:59;93976.00;;;0.49;nan
9277;BME280;4676;42.678;23.244;2023-12-20T08:56:27;93968.41;;;0.67;nan
9277;BME280;4676;42.678;23.244;2023-12-20T08:58:53;93962.66;;;0.59;nan
9277;BME280;4676;42.678;23.244;2023-12-20T09:01:20;93960.94;;;0.70;nan
9277;BME280;4676;42.678;23.244;2023-12-20T09:03:50;93954.19;;;0.86;nan
9277;BME280;4676;42.678;23.244;2023-12-20T09:06:17;93945.00;;;0.94;nan
9277;BME280;4676;42.678;23.244;2023-12-20T09:08:43;93939.94;;;1.08;nan
9277;BME280;4676;42.678;23.244;2023-12-20T09:11:10;93941.59;;;1.07;nan
9277;BME280;4676;42.678;23.244;2023-12-20T09:13:38;93934.03;;;1.18;nan
9277;BME280;4676;42.678;23.244;2023-12-20T09:16:05;93922.31;;;1.29;nan
9277;BME280;4676;42.678;23.244;2023-12-20T09:18:32;93922.31;;;1.27;nan
9277;BME280;4676;42.678;23.244;2023-12-20T09:20:59;93901.50;;;1.30;nan
9277;BME280;4676;42.678;23.244;2023-12-20T09:23:25;93899.00;;;1.30;nan
9277;BME280;4676;42.678;23.244;2023-12-20T09:25:52;93893.25;;;1.20;nan
9277;BME280;4676;42.678;23.244;2023-12-20T09:28:19;93891.56;;;1.25;nan
9277;BME280;4676;42.678;23.244;2023-12-20T09:30:47;93894.03;;;1.25;nan
9277;BME280;4676;42.678;23.244;2023-12-20T09:33:14;93886.44;;;1.37;nan
9277;BME280;4676;42.678;23.244;2023-12-20T09:35:41;93884.88;;;1.29;nan
9277;BME280;4676;42.678;23.244;2023-12-20T09:38:08;93876.59;;;1.21;nan
9277;BME280;4676;42.678;23.244;2023-12-20T09:40:36;93863.22;;;1.28;nan
9277;BME280;4676;42.678;23.244;2023-12-20T09:43:10;93859.78;;;1.42;nan
9277;BME280;4676;42.678;23.244;2023-12-20T09:45:38;93846.47;;;1.42;nan
9277;BME280;4676;42.678;23.244;2023-12-20T09:48:07;93852.97;;;1.55;nan
9277;BME280;4676;42.678;23.244;2023-12-20T09:50:37;93855.34;;;1.72;nan
9277;BME280;4676;42.678;23.244;2023-12-20T09:53:04;93856.97;;;1.76;nan
9277;BME280;4676;42.678;23.244;2023-12-20T09:55:36;93845.94;;;1.90;nan
9277;BME280;4676;42.678;23.244;2023-12-20T09:58:03;93844.31;;;1.89;nan
9277;BME280;4676;42.678;23.244;2023-12-20T10:00:31;93831.00;;;1.87;nan
9277;BME280;4676;42.678;23.244;2023-12-20T10:02:58;93836.56;;;2.08;nan
9277;BME280;4676;42.678;23.244;2023-12-20T10:05:28;93839.78;;;2.19;nan
9277;BME280;4676;42.678;23.244;2023-12-20T10:07:55;93842.19;;;2.28;nan
9277;BME280;4676;42.678;23.244;2023-12-20T10:10:22;93833.91;;;2.24;nan
9277;BME280;4676;42.678;23.244;2023-12-20T10:13:01;93814.06;;;2.11;nan
9277;BME280;4676;42.678;23.244;2023-12-20T10:15:28;93833.84;;;2.27;nan
9277;BME280;4676;42.678;23.244;2023-12-20T10:17:56;93830.44;;;2.33;nan
9277;BME280;4676;42.678;23.244;2023-12-20T10:20:23;93819.53;;;2.38;nan
9277;BME280;4676;42.678;23.244;2023-12-20T10:22:51;93810.38;;;2.39;nan
9277;BME280;4676;42.678;23.244;2023-12-20T10:25:19;93811.25;;;2.35;nan
9277;BME280;4676;42.678;23.244;2023-12-20T10:27:45;93800.31;;;2.42;nan
9277;BME280;4676;42.678;23.244;2023-12-20T10:30:13;93801.16;;;2.42;nan
9277;BME280;4676;42.678;23.244;2023-12-20T10:32:39;93780.47;;;2.30;nan
9277;BME280;4676;42.678;23.244;2023-12-20T10:35:08;93783.69;;;2.38;nan
9277;BME280;4676;42.678;23.244;2023-12-20T10:37:35;93772.28;;;2.20;nan
9277;BME280;4676;42.678;23.244;2023-12-20T10:40:05;93761.94;;;2.43;nan
9277;BME280;4676;42.678;23.244;2023-12-20T10:42:32;93761.72;;;2.58;nan
9277;BME280;4676;42.678;23.244;2023-12-20T10:45:00;93768.28;;;2.65;nan
9277;BME280;4676;42.678;23.244;2023-12-20T10:47:27;93760.66;;;2.73;nan
9277;BME280;4676;42.678;23.244;2023-12-20T10:49:54;93745.81;;;2.64;nan
9277;BME280;4676;42.678;23.244;2023-12-20T10:52:23;93746.41;;;2.78;nan
9277;BME280;4676;42.678;23.244;2023-12-20T10:54:50;93752.75;;;2.97;nan
9277;BME280;4676;42.678;23.244;2023-12-20T10:57:18;93735.91;;;3.07;nan
9277;BME280;4676;42.678;23.244;2023-12-20T10:59:45;93747.19;;;3.30;nan
9277;BME280;4676;42.678;23.244;2023-12-20T11:02:15;93739.41;;;3.42;nan
9277;BME280;4676;42.678;23.244;2023-12-20T11:04:50;93737.53;;;3.53;nan
9277;BME280;4676;42.678;23.244;2023-12-20T11:07:23;93719.38;;;3.42;nan
9277;BME280;4676;42.678;23.244;2023-12-20T11:09:58;93729.03;;;3.62;nan
9277;BME280;4676;42.678;23.244;2023-12-20T11:12:36;93714.22;;;3.51;nan
9277;BME280;4676;42.678;23.244;2023-12-20T11:15:06;93729.59;;;3.75;nan
9277;BME280;4676;42.678;23.244;2023-12-20T11:17:33;93708.81;;;3.70;nan
9277;BME280;4676;42.678;23.244;2023-12-20T11:20:09;93704.53;;;3.76;nan
9277;BME280;4676;42.678;23.244;2023-12-20T11:22:39;93717.16;;;3.72;nan
9277;BME280;4676;42.678;23.244;2023-12-20T11:25:17;93696.78;;;3.45;nan
9277;BME280;4676;42.678;23.244;2023-12-20T11:28:09;93688.06;;;3.65;nan
9277;BME280;4676;42.678;23.244;2023-12-20T11:30:45;93693.63;;;3.77;nan
9277;BME280;4676;42.678;23.244;2023-12-20T11:33:13;93683.28;;;3.94;nan
9277;BME280;4676;42.678;23.244;2023-12-20T11:35:40;93680.56;;;4.03;nan
9277;BME280;4676;42.678;23.244;2023-12-20T11:38:08;93674.41;;;4.16;nan
9277;BME280;4676;42.678;23.244;2023-12-20T11:40:35;93662.53;;;4.24;nan
9277;BME280;4676;42.678;23.244;2023-12-20T11:43:03;93666.47;;;4.34;nan
9277;BME280;4676;42.678;23.244;2023-12-20T11:45:30;93657.44;;;4.26;nan
9277;BME280;4676;42.678;23.244;2023-12-20T11:47:57;93658.34;;;4.25;nan
9277;BME280;4676;42.678;23.244;2023-12-20T11:50:25;93651.44;;;4.33;nan
9277;BME280;4676;42.678;23.244;2023-12-20T11:52:52;93646.31;;;4.37;nan
9277;BME280;4676;42.678;23.244;2023-12-20T11:55:19;93643.78;;;4.39;nan
9277;BME280;4676;42.678;23.244;2023-12-20T11:57:46;93626.94;;;4.44;nan
9277;BME280;4676;42.678;23.244;2023-12-20T12:00:15;93630.81;;;4.57;nan
9277;BME280;4676;42.678;23.244;2023-12-20T12:02:42;93598.56;;;4.42;nan
9277;BME280;4676;42.678;23.244;2023-12-20T12:05:09;93620.69;;;4.60;nan
9277;BME280;4676;42.678;23.244;2023-12-20T12:07:35;93609.03;;;4.58;nan
9277;BME280;4676;42.678;23.244;2023-12-20T12:12:31;93602.69;;;4.77;nan
9277;BME280;4676;42.678;23.244;2023-12-20T12:14:58;93598.41;;;4.80;nan
9277;BME280;4676;42.678;23.244;2023-12-20T12:17:26;93595.19;;;4.75;nan
9277;BME280;4676;42.678;23.244;2023-12-20T12:20:02;93590.16;;;4.75;nan
9277;BME280;4676;42.678;23.244;2023-12-20T12:22:28;93592.53;;;4.81;nan
9277;BME280;4676;42.678;23.244;2023-12-20T12:24:59;93578.53;;;4.73;nan
9277;BME280;4676;42.678;23.244;2023-12-20T12:27:27;93586.06;;;4.73;nan
9277;BME280;4676;42.678;23.244;2023-12-20T12:30:00;93575.34;;;4.66;nan
9277;BME280;4676;42.678;23.244;2023-12-20T12:32:29;93585.22;;;4.72;nan
9277;BME280;4676;42.678;23.244;2023-12-20T12:34:56;93584.66;;;4.63;nan
9277;BME280;4676;42.678;23.244;2023-12-20T12:37:22;93584.47;;;4.69;nan
9277;BME280;4676;42.678;23.244;2023-12-20T12:39:50;93596.91;;;4.75;nan
9277;BME280;4676;42.678;23.244;2023-12-20T12:42:19;93589.63;;;4.64;nan
9277;BME280;4676;42.678;23.244;2023-12-20T12:44:46;93579.72;;;4.60;nan
9277;BME280;4676;42.678;23.244;2023-12-20T12:47:13;93584.94;;;4.50;nan
9277;BME280;4676;42.678;23.244;2023-12-20T12:49:41;93584.75;;;4.58;nan
9277;BME280;4676;42.678;23.244;2023-12-20T12:52:08;93578.31;;;4.49;nan
9277;BME280;4676;42.678;23.244;2023-12-20T12:54:35;93577.41;;;4.50;nan
9277;BME280;4676;42.678;23.244;2023-12-20T12:57:02;93572.56;;;4.44;nan
9277;BME280;4676;42.678;23.244;2023-12-20T12:59:28;93566.78;;;4.42;nan
9277;BME280;4676;42.678;23.244;2023-12-20T13:01:55;93569.16;;;4.47;nan
9277;BME280;4676;42.678;23.244;2023-12-20T13:04:22;93563.19;;;4.51;nan
9277;BME280;4676;42.678;23.244;2023-12-20T13:06:50;93568.88;;;4.58;nan
9277;BME280;4676;42.678;23.244;2023-12-20T13:09:16;93565.16;;;4.72;nan
9277;BME280;4676;42.678;23.244;2023-12-20T13:11:44;93561.03;;;4.70;nan
9277;BME280;4676;42.678;23.244;2023-12-20T13:14:11;93568.59;;;4.68;nan
9277;BME280;4676;42.678;23.244;2023-12-20T13:16:40;93561.88;;;4.36;nan
9277;BME280;4676;42.678;23.244;2023-12-20T13:19:07;93561.03;;;4.37;nan
9277;BME280;4676;42.678;23.244;2023-12-20T13:21:35;93557.00;;;4.32;nan
9277;BME280;4676;42.678;23.244;2023-12-20T13:24:04;93548.19;;;4.16;nan
9277;BME280;4676;42.678;23.244;2023-12-20T13:26:30;93557.34;;;4.18;nan
9277;BME280;4676;42.678;23.244;2023-12-20T13:28:57;93552.59;;;4.08;nan
9277;BME280;4676;42.678;23.244;2023-12-20T13:31:24;93553.63;;;3.99;nan
9277;BME280;4676;42.678;23.244;2023-12-20T13:33:50;93545.19;;;4.03;nan
9277;BME280;4676;42.678;23.244;2023-12-20T13:36:17;93548.47;;;4.05;nan
9277;BME280;4676;42.678;23.244;2023-12-20T13:38:44;93538.09;;;4.19;nan
9277;BME280;4676;42.678;23.244;2023-12-20T13:41:12;93538.41;;;4.07;nan
9277;BME280;4676;42.678;23.244;2023-12-20T13:43:39;93542.84;;;3.97;nan
9277;BME280;4676;42.678;23.244;2023-12-20T13:46:06;93528.56;;;3.99;nan